sensor_id;sensor_type;location;lat;lon;timestamp;temperature;humidity
21425;DHT22;10873;51.132;16.848;2023-11-21T00:00:21;23.90;59.80
21425;DHT22;10873;51.132;16.848;2023-11-21T00:03:07;23.90;59.80
21425;DHT22;10873;51.132;16.848;2023-11-21T00:05:33;23.90;59.70
21425;DHT22;10873;51.132;16.848;2023-11-21T00:07:59;23.90;59.60
21425;DHT22;10873;51.132;16.848;2023-11-21T00:10:25;23.90;59.60
21425;DHT22;10873;51.132;16.848;2023-11-21T00:12:51;24.00;59.70
21425;DHT22;10873;51.132;16.848;2023-11-21T00:15:18;24.00;59.60
21425;DHT22;10873;51.132;16.848;2023-11-21T00:17:44;24.00;59.50
21425;DHT22;10873;51.132;16.848;2023-11-21T00:20:10;24.00;59.50
21425;DHT22;10873;51.132;16.848;2023-11-21T00:22:41;24.00;59.50
21425;DHT22;10873;51.132;16.848;2023-11-21T00:25:07;24.00;59.40
21425;DHT22;10873;51.132;16.848;2023-11-21T00:27:35;24.00;59.40
21425;DHT22;10873;51.132;16.848;2023-11-21T00:30:01;24.00;59.40
21425;DHT22;10873;51.132;16.848;2023-11-21T00:32:28;24.00;60.10
21425;DHT22;10873;51.132;16.848;2023-11-21T00:34:54;24.10;59.40
21425;DHT22;10873;51.132;16.848;2023-11-21T00:37:20;24.10;59.30
21425;DHT22;10873;51.132;16.848;2023-11-21T00:39:46;24.10;59.30
21425;DHT22;10873;51.132;16.848;2023-11-21T00:42:12;24.10;59.20
21425;DHT22;10873;51.132;16.848;2023-11-21T00:44:38;24.10;59.20
21425;DHT22;10873;51.132;16.848;2023-11-21T00:47:05;24.20;59.20
21425;DHT22;10873;51.132;16.848;2023-11-21T00:49:32;24.10;59.20
21425;DHT22;10873;51.132;16.848;2023-11-21T00:51:59;24.10;59.10
21425;DHT22;10873;51.132;16.848;2023-11-21T00:54:24;24.20;59.20
21425;DHT22;10873;51.132;16.848;2023-11-21T00:56:51;24.20;59.20
21425;DHT22;10873;51.132;16.848;2023-11-21T00:59:17;24.10;59.00
21425;DHT22;10873;51.132;16.848;2023-11-21T01:01:43;24.20;59.10
21425;DHT22;10873;51.132;16.848;2023-11-21T01:04:09;24.20;59.00
21425;DHT22;10873;51.132;16.848;2023-11-21T01:06:38;24.20;59.00
21425;DHT22;10873;51.132;16.848;2023-11-21T01:09:04;24.20;58.90
21425;DHT22;10873;51.132;16.848;2023-11-21T01:11:39;24.20;58.90
21425;DHT22;10873;51.132;16.848;2023-11-21T01:14:05;24.20;58.90
21425;DHT22;10873;51.132;16.848;2023-11-21T01:16:32;24.20;58.80
21425;DHT22;10873;51.132;16.848;2023-11-21T01:18:58;24.20;58.80
21425;DHT22;10873;51.132;16.848;2023-11-21T01:21:25;24.30;58.90
21425;DHT22;10873;51.132;16.848;2023-11-21T01:23:52;24.30;58.80
21425;DHT22;10873;51.132;16.848;2023-11-21T01:26:18;24.30;58.80
21425;DHT22;10873;51.132;16.848;2023-11-21T01:28:44;24.30;58.80
21425;DHT22;10873;51.132;16.848;2023-11-21T01:31:11;24.30;58.70
21425;DHT22;10873;51.132;16.848;2023-11-21T01:33:36;24.30;58.70
21425;DHT22;10873;51.132;16.848;2023-11-21T01:36:03;24.30;58.70
21425;DHT22;10873;51.132;16.848;2023-11-21T01:38:29;24.30;58.60
21425;DHT22;10873;51.132;16.848;2023-11-21T01:40:57;24.40;58.60
21425;DHT22;10873;51.132;16.848;2023-11-21T01:43:23;24.40;58.50
21425;DHT22;10873;51.132;16.848;2023-11-21T01:45:49;24.40;58.50
21425;DHT22;10873;51.132;16.848;2023-11-21T01:48:15;24.40;58.60
21425;DHT22;10873;51.132;16.848;2023-11-21T01:50:50;24.40;58.50
21425;DHT22;10873;51.132;16.848;2023-11-21T01:53:17;24.40;58.50
21425;DHT22;10873;51.132;16.848;2023-11-21T01:55:45;24.40;58.50
21425;DHT22;10873;51.132;16.848;2023-11-21T01:58:13;24.40;58.50
21425;DHT22;10873;51.132;16.848;2023-11-21T02:00:39;24.40;58.40
21425;DHT22;10873;51.132;16.848;2023-11-21T02:03:05;24.40;58.40
21425;DHT22;10873;51.132;16.848;2023-11-21T02:05:33;24.40;58.40
21425;DHT22;10873;51.132;16.848;2023-11-21T02:07:59;24.50;58.50
21425;DHT22;10873;51.132;16.848;2023-11-21T02:10:26;24.50;58.40
21425;DHT22;10873;51.132;16.848;2023-11-21T02:12:52;24.40;58.30
21425;DHT22;10873;51.132;16.848;2023-11-21T02:15:20;24.50;58.40
21425;DHT22;10873;51.132;16.848;2023-11-21T02:17:46;24.50;58.40
21425;DHT22;10873;51.132;16.848;2023-11-21T02:20:17;24.50;58.30
21425;DHT22;10873;51.132;16.848;2023-11-21T02:22:49;24.50;58.30
21425;DHT22;10873;51.132;16.848;2023-11-21T02:25:15;24.50;58.30
21425;DHT22;10873;51.132;16.848;2023-11-21T02:27:41;24.50;58.30
21425;DHT22;10873;51.132;16.848;2023-11-21T02:30:10;24.50;58.30
21425;DHT22;10873;51.132;16.848;2023-11-21T02:32:39;24.50;58.30
21425;DHT22;10873;51.132;16.848;2023-11-21T02:35:06;24.50;58.30
21425;DHT22;10873;51.132;16.848;2023-11-21T02:37:34;24.50;58.40
21425;DHT22;10873;51.132;16.848;2023-11-21T02:40:11;24.50;58.30
21425;DHT22;10873;51.132;16.848;2023-11-21T02:42:43;24.50;58.20
21425;DHT22;10873;51.132;16.848;2023-11-21T02:45:09;24.50;58.20
21425;DHT22;10873;51.132;16.848;2023-11-21T02:47:38;24.50;58.20
21425;DHT22;10873;51.132;16.848;2023-11-21T02:50:06;24.60;58.20
21425;DHT22;10873;51.132;16.848;2023-11-21T02:52:34;24.50;58.10
21425;DHT22;10873;51.132;16.848;2023-11-21T02:55:01;24.60;58.20
21425;DHT22;10873;51.132;16.848;2023-11-21T02:57:28;24.50;58.10
21425;DHT22;10873;51.132;16.848;2023-11-21T02:59:54;24.60;58.20
21425;DHT22;10873;51.132;16.848;2023-11-21T03:02:20;24.60;58.10
21425;DHT22;10873;51.132;16.848;2023-11-21T03:04:47;24.60;58.10
21425;DHT22;10873;51.132;16.848;2023-11-21T03:07:14;24.60;58.10
21425;DHT22;10873;51.132;16.848;2023-11-21T03:09:41;24.60;58.20
21425;DHT22;10873;51.132;16.848;2023-11-21T03:12:15;24.50;58.60
21425;DHT22;10873;51.132;16.848;2023-11-21T03:14:43;24.50;58.10
21425;DHT22;10873;51.132;16.848;2023-11-21T03:17:11;24.60;58.10
21425;DHT22;10873;51.132;16.848;2023-11-21T03:19:37;24.60;58.10
21425;DHT22;10873;51.132;16.848;2023-11-21T03:22:03;24.60;58.00
21425;DHT22;10873;51.132;16.848;2023-11-21T03:24:30;24.70;58.00
21425;DHT22;10873;51.132;16.848;2023-11-21T03:26:56;24.70;58.00
21425;DHT22;10873;51.132;16.848;2023-11-21T03:29:22;24.70;57.90
21425;DHT22;10873;51.132;16.848;2023-11-21T03:31:49;24.70;57.90
21425;DHT22;10873;51.132;16.848;2023-11-21T03:34:19;24.70;57.90
21425;DHT22;10873;51.132;16.848;2023-11-21T03:36:45;24.70;57.90
21425;DHT22;10873;51.132;16.848;2023-11-21T03:39:12;24.70;57.90
21425;DHT22;10873;51.132;16.848;2023-11-21T03:41:38;24.70;57.90
21425;DHT22;10873;51.132;16.848;2023-11-21T03:44:05;24.70;57.90
21425;DHT22;10873;51.132;16.848;2023-11-21T03:46:31;24.70;57.90
21425;DHT22;10873;51.132;16.848;2023-11-21T03:48:58;24.70;57.90
21425;DHT22;10873;51.132;16.848;2023-11-21T03:51:24;24.70;57.90
21425;DHT22;10873;51.132;16.848;2023-11-21T03:53:50;24.70;57.90
21425;DHT22;10873;51.132;16.848;2023-11-21T03:56:16;24.70;57.90
21425;DHT22;10873;51.132;16.848;2023-11-21T03:58:42;24.70;57.90
21425;DHT22;10873;51.132;16.848;2023-11-21T04:01:08;24.70;57.90
21425;DHT22;10873;51.132;16.848;2023-11-21T04:03:35;24.80;57.90
21425;DHT22;10873;51.132;16.848;2023-11-21T04:06:03;24.80;57.80
21425;DHT22;10873;51.132;16.848;2023-11-21T04:08:29;24.80;57.80
21425;DHT22;10873;51.132;16.848;2023-11-21T04:10:55;24.80;57.70
21425;DHT22;10873;51.132;16.848;2023-11-21T04:13:21;24.80;57.70
21425;DHT22;10873;51.132;16.848;2023-11-21T04:15:47;24.80;57.70
21425;DHT22;10873;51.132;16.848;2023-11-21T04:18:13;24.80;57.70
21425;DHT22;10873;51.132;16.848;2023-11-21T04:20:39;24.80;57.70
21425;DHT22;10873;51.132;16.848;2023-11-21T04:23:07;24.80;57.60
21425;DHT22;10873;51.132;16.848;2023-11-21T04:25:35;24.80;57.60
21425;DHT22;10873;51.132;16.848;2023-11-21T04:28:01;24.90;57.70
21425;DHT22;10873;51.132;16.848;2023-11-21T04:30:27;24.80;57.60
21425;DHT22;10873;51.132;16.848;2023-11-21T04:32:53;24.90;57.60
21425;DHT22;10873;51.132;16.848;2023-11-21T04:35:20;24.80;57.60
21425;DHT22;10873;51.132;16.848;2023-11-21T04:37:47;24.80;57.60
21425;DHT22;10873;51.132;16.848;2023-11-21T04:40:14;24.80;57.60
21425;DHT22;10873;51.132;16.848;2023-11-21T04:42:41;24.80;57.60
21425;DHT22;10873;51.132;16.848;2023-11-21T04:45:08;24.80;57.70
21425;DHT22;10873;51.132;16.848;2023-11-21T04:47:35;24.80;57.70
21425;DHT22;10873;51.132;16.848;2023-11-21T04:50:01;24.80;57.70
21425;DHT22;10873;51.132;16.848;2023-11-21T04:52:27;24.80;57.70
21425;DHT22;10873;51.132;16.848;2023-11-21T04:54:53;24.80;57.70
21425;DHT22;10873;51.132;16.848;2023-11-21T04:57:21;24.80;57.60
21425;DHT22;10873;51.132;16.848;2023-11-21T04:59:48;24.80;57.60
21425;DHT22;10873;51.132;16.848;2023-11-21T05:02:14;24.80;57.50
21425;DHT22;10873;51.132;16.848;2023-11-21T05:04:40;24.90;57.50
21425;DHT22;10873;51.132;16.848;2023-11-21T05:07:08;24.90;57.50
21425;DHT22;10873;51.132;16.848;2023-11-21T05:09:34;24.90;57.50
21425;DHT22;10873;51.132;16.848;2023-11-21T05:12:08;24.90;57.40
21425;DHT22;10873;51.132;16.848;2023-11-21T05:14:36;24.90;57.40
21425;DHT22;10873;51.132;16.848;2023-11-21T05:17:02;24.90;57.40
21425;DHT22;10873;51.132;16.848;2023-11-21T05:19:29;25.00;57.40
21425;DHT22;10873;51.132;16.848;2023-11-21T05:21:56;24.90;57.40
21425;DHT22;10873;51.132;16.848;2023-11-21T05:24:22;25.00;57.50
21425;DHT22;10873;51.132;16.848;2023-11-21T05:26:48;24.90;57.40
21425;DHT22;10873;51.132;16.848;2023-11-21T05:29:14;24.90;57.40
21425;DHT22;10873;51.132;16.848;2023-11-21T05:31:41;24.90;57.40
21425;DHT22;10873;51.132;16.848;2023-11-21T05:34:07;24.90;57.40
21425;DHT22;10873;51.132;16.848;2023-11-21T05:36:33;24.90;57.40
21425;DHT22;10873;51.132;16.848;2023-11-21T05:38:59;24.90;58.00
21425;DHT22;10873;51.132;16.848;2023-11-21T05:41:25;24.90;57.40
21425;DHT22;10873;51.132;16.848;2023-11-21T05:43:51;24.90;57.40
21425;DHT22;10873;51.132;16.848;2023-11-21T05:46:20;24.90;57.40
21425;DHT22;10873;51.132;16.848;2023-11-21T05:48:51;24.90;57.40
21425;DHT22;10873;51.132;16.848;2023-11-21T05:51:17;24.90;57.40
21425;DHT22;10873;51.132;16.848;2023-11-21T05:53:44;24.90;57.40
21425;DHT22;10873;51.132;16.848;2023-11-21T05:56:10;25.00;57.30
21425;DHT22;10873;51.132;16.848;2023-11-21T05:58:36;25.00;57.30
21425;DHT22;10873;51.132;16.848;2023-11-21T06:01:05;25.00;57.30
21425;DHT22;10873;51.132;16.848;2023-11-21T06:03:33;25.00;57.30
21425;DHT22;10873;51.132;16.848;2023-11-21T06:06:00;25.00;57.30
21425;DHT22;10873;51.132;16.848;2023-11-21T06:08:26;25.00;57.20
21425;DHT22;10873;51.132;16.848;2023-11-21T06:10:53;25.00;57.20
21425;DHT22;10873;51.132;16.848;2023-11-21T06:13:18;25.00;57.20
21425;DHT22;10873;51.132;16.848;2023-11-21T06:15:50;25.00;57.50
21425;DHT22;10873;51.132;16.848;2023-11-21T06:18:16;25.00;57.90
21425;DHT22;10873;51.132;16.848;2023-11-21T06:20:45;24.90;62.70
21425;DHT22;10873;51.132;16.848;2023-11-21T06:23:12;25.00;85.50
21425;DHT22;10873;51.132;16.848;2023-11-21T06:25:38;25.00;79.00
21425;DHT22;10873;51.132;16.848;2023-11-21T06:28:04;24.90;73.40
21425;DHT22;10873;51.132;16.848;2023-11-21T06:30:31;25.00;68.00
21425;DHT22;10873;51.132;16.848;2023-11-21T06:32:57;24.90;64.90
21425;DHT22;10873;51.132;16.848;2023-11-21T06:35:24;25.00;79.00
21425;DHT22;10873;51.132;16.848;2023-11-21T06:37:50;25.00;84.80
21425;DHT22;10873;51.132;16.848;2023-11-21T06:40:18;25.00;77.40
21425;DHT22;10873;51.132;16.848;2023-11-21T06:42:44;25.10;75.30
21425;DHT22;10873;51.132;16.848;2023-11-21T06:45:12;25.10;71.60
21425;DHT22;10873;51.132;16.848;2023-11-21T06:47:38;25.10;68.70
21425;DHT22;10873;51.132;16.848;2023-11-21T06:50:06;25.10;67.70
21425;DHT22;10873;51.132;16.848;2023-11-21T06:52:32;25.10;67.00
21425;DHT22;10873;51.132;16.848;2023-11-21T06:54:59;25.10;65.90
21425;DHT22;10873;51.132;16.848;2023-11-21T06:57:26;25.10;64.50
21425;DHT22;10873;51.132;16.848;2023-11-21T06:59:53;25.10;63.30
21425;DHT22;10873;51.132;16.848;2023-11-21T07:02:19;25.10;62.30
21425;DHT22;10873;51.132;16.848;2023-11-21T07:04:45;25.10;61.50
21425;DHT22;10873;51.132;16.848;2023-11-21T07:07:11;25.10;61.20
21425;DHT22;10873;51.132;16.848;2023-11-21T07:09:38;25.10;61.40
21425;DHT22;10873;51.132;16.848;2023-11-21T07:12:04;25.10;61.50
21425;DHT22;10873;51.132;16.848;2023-11-21T07:14:35;25.00;61.50
21425;DHT22;10873;51.132;16.848;2023-11-21T07:17:00;25.00;61.60
21425;DHT22;10873;51.132;16.848;2023-11-21T07:19:27;25.00;61.70
21425;DHT22;10873;51.132;16.848;2023-11-21T07:21:53;25.00;61.80
21425;DHT22;10873;51.132;16.848;2023-11-21T07:24:19;25.00;61.80
21425;DHT22;10873;51.132;16.848;2023-11-21T07:26:45;25.00;61.90
21425;DHT22;10873;51.132;16.848;2023-11-21T07:29:11;25.00;61.90
21425;DHT22;10873;51.132;16.848;2023-11-21T07:31:38;24.90;61.90
21425;DHT22;10873;51.132;16.848;2023-11-21T07:34:04;24.90;61.90
21425;DHT22;10873;51.132;16.848;2023-11-21T07:36:30;24.90;61.90
21425;DHT22;10873;51.132;16.848;2023-11-21T07:38:57;24.90;62.00
21425;DHT22;10873;51.132;16.848;2023-11-21T07:41:22;24.80;62.00
21425;DHT22;10873;51.132;16.848;2023-11-21T07:43:49;24.80;61.90
21425;DHT22;10873;51.132;16.848;2023-11-21T07:46:14;24.80;61.90
21425;DHT22;10873;51.132;16.848;2023-11-21T07:48:42;24.80;61.90
21425;DHT22;10873;51.132;16.848;2023-11-21T07:51:09;24.80;61.90
21425;DHT22;10873;51.132;16.848;2023-11-21T07:53:36;24.80;61.90
21425;DHT22;10873;51.132;16.848;2023-11-21T07:56:03;24.80;61.90
21425;DHT22;10873;51.132;16.848;2023-11-21T07:58:29;24.80;61.90
21425;DHT22;10873;51.132;16.848;2023-11-21T08:00:55;24.80;61.90
21425;DHT22;10873;51.132;16.848;2023-11-21T08:03:21;24.80;61.80
21425;DHT22;10873;51.132;16.848;2023-11-21T08:05:48;24.80;61.70
21425;DHT22;10873;51.132;16.848;2023-11-21T08:08:15;24.80;61.80
21425;DHT22;10873;51.132;16.848;2023-11-21T08:10:44;24.70;61.80
21425;DHT22;10873;51.132;16.848;2023-11-21T08:13:22;24.70;61.80
21425;DHT22;10873;51.132;16.848;2023-11-21T08:15:48;24.70;61.80
21425;DHT22;10873;51.132;16.848;2023-11-21T08:18:14;24.70;61.80
21425;DHT22;10873;51.132;16.848;2023-11-21T08:20:46;24.70;61.80
21425;DHT22;10873;51.132;16.848;2023-11-21T08:23:15;24.70;61.80
21425;DHT22;10873;51.132;16.848;2023-11-21T08:25:44;24.70;61.80
21425;DHT22;10873;51.132;16.848;2023-11-21T08:28:13;24.70;61.80
21425;DHT22;10873;51.132;16.848;2023-11-21T08:30:42;24.70;61.80
21425;DHT22;10873;51.132;16.848;2023-11-21T08:33:09;24.70;61.80
21425;DHT22;10873;51.132;16.848;2023-11-21T08:35:35;24.60;61.70
21425;DHT22;10873;51.132;16.848;2023-11-21T08:38:02;24.70;61.80
21425;DHT22;10873;51.132;16.848;2023-11-21T08:40:30;24.60;61.70
21425;DHT22;10873;51.132;16.848;2023-11-21T08:42:57;24.70;61.80
21425;DHT22;10873;51.132;16.848;2023-11-21T08:45:24;24.70;61.80
21425;DHT22;10873;51.132;16.848;2023-11-21T08:47:54;24.70;62.90
21425;DHT22;10873;51.132;16.848;2023-11-21T08:50:20;24.60;62.00
21425;DHT22;10873;51.132;16.848;2023-11-21T08:52:48;24.70;62.10
21425;DHT22;10873;51.132;16.848;2023-11-21T08:55:14;24.70;62.30
21425;DHT22;10873;51.132;16.848;2023-11-21T08:57:44;24.70;62.30
21425;DHT22;10873;51.132;16.848;2023-11-21T09:00:11;24.70;62.40
21425;DHT22;10873;51.132;16.848;2023-11-21T09:02:45;24.70;62.50
21425;DHT22;10873;51.132;16.848;2023-11-21T09:05:12;24.70;62.60
21425;DHT22;10873;51.132;16.848;2023-11-21T09:07:40;24.70;62.60
21425;DHT22;10873;51.132;16.848;2023-11-21T09:10:07;24.70;62.50
21425;DHT22;10873;51.132;16.848;2023-11-21T09:12:35;24.70;62.50
21425;DHT22;10873;51.132;16.848;2023-11-21T09:15:05;24.70;62.50
21425;DHT22;10873;51.132;16.848;2023-11-21T09:17:32;24.70;63.20
21425;DHT22;10873;51.132;16.848;2023-11-21T09:19:58;24.70;62.30
21425;DHT22;10873;51.132;16.848;2023-11-21T09:22:24;24.70;62.50
21425;DHT22;10873;51.132;16.848;2023-11-21T09:24:50;24.80;62.40
21425;DHT22;10873;51.132;16.848;2023-11-21T09:27:16;24.80;62.30
21425;DHT22;10873;51.132;16.848;2023-11-21T09:29:43;24.80;62.30
21425;DHT22;10873;51.132;16.848;2023-11-21T09:32:10;24.80;62.30
21425;DHT22;10873;51.132;16.848;2023-11-21T09:34:38;24.80;62.30
21425;DHT22;10873;51.132;16.848;2023-11-21T09:37:04;24.80;62.30
21425;DHT22;10873;51.132;16.848;2023-11-21T09:39:32;24.80;62.30
21425;DHT22;10873;51.132;16.848;2023-11-21T09:42:04;24.80;62.30
21425;DHT22;10873;51.132;16.848;2023-11-21T09:44:41;24.80;62.30
21425;DHT22;10873;51.132;16.848;2023-11-21T09:47:14;24.80;62.20
21425;DHT22;10873;51.132;16.848;2023-11-21T09:49:43;24.80;62.30
21425;DHT22;10873;51.132;16.848;2023-11-21T09:52:24;24.70;62.10
21425;DHT22;10873;51.132;16.848;2023-11-21T09:54:51;24.70;62.10
21425;DHT22;10873;51.132;16.848;2023-11-21T09:57:19;24.70;62.00
21425;DHT22;10873;51.132;16.848;2023-11-21T09:59:47;24.70;62.10
21425;DHT22;10873;51.132;16.848;2023-11-21T10:02:18;24.80;62.20
21425;DHT22;10873;51.132;16.848;2023-11-21T10:04:46;24.80;62.10
21425;DHT22;10873;51.132;16.848;2023-11-21T10:07:14;24.70;62.10
21425;DHT22;10873;51.132;16.848;2023-11-21T10:09:42;24.70;62.10
21425;DHT22;10873;51.132;16.848;2023-11-21T10:12:17;24.70;62.10
21425;DHT22;10873;51.132;16.848;2023-11-21T10:14:48;24.70;62.10
21425;DHT22;10873;51.132;16.848;2023-11-21T10:17:15;24.70;62.20
21425;DHT22;10873;51.132;16.848;2023-11-21T10:19:46;24.70;62.20
21425;DHT22;10873;51.132;16.848;2023-11-21T10:22:13;24.70;62.30
21425;DHT22;10873;51.132;16.848;2023-11-21T10:24:40;24.70;62.30
21425;DHT22;10873;51.132;16.848;2023-11-21T10:27:08;24.70;62.40
21425;DHT22;10873;51.132;16.848;2023-11-21T10:29:34;24.70;62.40
21425;DHT22;10873;51.132;16.848;2023-11-21T10:32:02;24.70;62.40
21425;DHT22;10873;51.132;16.848;2023-11-21T10:34:28;24.70;62.50
21425;DHT22;10873;51.132;16.848;2023-11-21T10:36:55;24.60;62.40
21425;DHT22;10873;51.132;16.848;2023-11-21T10:39:30;24.60;62.60
21425;DHT22;10873;51.132;16.848;2023-11-21T10:41:56;24.60;62.70
21425;DHT22;10873;51.132;16.848;2023-11-21T10:44:22;24.60;62.90
21425;DHT22;10873;51.132;16.848;2023-11-21T10:46:51;24.60;63.00
21425;DHT22;10873;51.132;16.848;2023-11-21T10:49:18;24.60;63.10
21425;DHT22;10873;51.132;16.848;2023-11-21T10:51:45;24.60;63.20
21425;DHT22;10873;51.132;16.848;2023-11-21T10:54:13;24.60;63.30
21425;DHT22;10873;51.132;16.848;2023-11-21T10:56:49;24.70;63.50
21425;DHT22;10873;51.132;16.848;2023-11-21T10:59:23;24.70;63.30
21425;DHT22;10873;51.132;16.848;2023-11-21T11:01:51;24.70;63.20
21425;DHT22;10873;51.132;16.848;2023-11-21T11:04:19;24.70;63.00
21425;DHT22;10873;51.132;16.848;2023-11-21T11:06:47;24.70;63.00
21425;DHT22;10873;51.132;16.848;2023-11-21T11:09:17;24.70;62.90
21425;DHT22;10873;51.132;16.848;2023-11-21T11:11:43;24.70;62.80
21425;DHT22;10873;51.132;16.848;2023-11-21T11:14:12;24.70;62.70
21425;DHT22;10873;51.132;16.848;2023-11-21T11:16:40;24.70;62.60
21425;DHT22;10873;51.132;16.848;2023-11-21T11:19:06;24.70;62.50
21425;DHT22;10873;51.132;16.848;2023-11-21T11:21:42;24.70;62.50
21425;DHT22;10873;51.132;16.848;2023-11-21T11:24:20;24.70;62.40
21425;DHT22;10873;51.132;16.848;2023-11-21T11:26:55;24.70;62.40
21425;DHT22;10873;51.132;16.848;2023-11-21T11:29:43;24.70;62.20
21425;DHT22;10873;51.132;16.848;2023-11-21T11:32:23;24.70;62.20
21425;DHT22;10873;51.132;16.848;2023-11-21T11:35:06;24.70;62.10
21425;DHT22;10873;51.132;16.848;2023-11-21T11:37:34;24.70;62.10
21425;DHT22;10873;51.132;16.848;2023-11-21T11:40:06;24.70;62.20
21425;DHT22;10873;51.132;16.848;2023-11-21T11:42:32;24.60;62.20
21425;DHT22;10873;51.132;16.848;2023-11-21T11:44:58;24.70;62.30
21425;DHT22;10873;51.132;16.848;2023-11-21T11:47:27;24.60;62.30
21425;DHT22;10873;51.132;16.848;2023-11-21T11:50:01;24.70;62.40
21425;DHT22;10873;51.132;16.848;2023-11-21T11:52:38;24.60;62.50
21425;DHT22;10873;51.132;16.848;2023-11-21T11:55:11;24.60;62.60
21425;DHT22;10873;51.132;16.848;2023-11-21T11:57:37;24.60;62.60
21425;DHT22;10873;51.132;16.848;2023-11-21T12:00:08;24.60;62.60
21425;DHT22;10873;51.132;16.848;2023-11-21T12:02:36;24.60;62.60
21425;DHT22;10873;51.132;16.848;2023-11-21T12:05:08;24.60;62.50
21425;DHT22;10873;51.132;16.848;2023-11-21T12:07:46;24.60;62.50
21425;DHT22;10873;51.132;16.848;2023-11-21T12:10:15;24.60;62.50
21425;DHT22;10873;51.132;16.848;2023-11-21T12:12:47;24.60;62.40
21425;DHT22;10873;51.132;16.848;2023-11-21T12:15:19;24.60;62.30
21425;DHT22;10873;51.132;16.848;2023-11-21T12:17:45;24.60;62.10
21425;DHT22;10873;51.132;16.848;2023-11-21T12:20:12;24.60;62.00
21425;DHT22;10873;51.132;16.848;2023-11-21T12:22:44;24.60;62.00
21425;DHT22;10873;51.132;16.848;2023-11-21T12:25:15;24.60;61.90
21425;DHT22;10873;51.132;16.848;2023-11-21T12:27:49;24.60;61.80
21425;DHT22;10873;51.132;16.848;2023-11-21T12:30:16;24.70;61.80
21425;DHT22;10873;51.132;16.848;2023-11-21T12:32:44;24.70;61.60
21425;DHT22;10873;51.132;16.848;2023-11-21T12:35:13;24.60;61.40
21425;DHT22;10873;51.132;16.848;2023-11-21T12:37:41;24.60;61.30
21425;DHT22;10873;51.132;16.848;2023-11-21T12:40:09;24.70;61.30
21425;DHT22;10873;51.132;16.848;2023-11-21T12:42:44;24.60;61.20
21425;DHT22;10873;51.132;16.848;2023-11-21T12:45:19;24.60;61.00
21425;DHT22;10873;51.132;16.848;2023-11-21T12:47:47;24.60;61.00
21425;DHT22;10873;51.132;16.848;2023-11-21T12:50:19;24.60;60.90
21425;DHT22;10873;51.132;16.848;2023-11-21T12:53:00;24.60;60.80
21425;DHT22;10873;51.132;16.848;2023-11-21T12:55:26;24.60;60.70
21425;DHT22;10873;51.132;16.848;2023-11-21T12:57:57;24.60;60.60
21425;DHT22;10873;51.132;16.848;2023-11-21T13:00:31;24.60;60.40
21425;DHT22;10873;51.132;16.848;2023-11-21T13:02:59;24.60;60.30
21425;DHT22;10873;51.132;16.848;2023-11-21T13:05:27;24.60;60.20
21425;DHT22;10873;51.132;16.848;2023-11-21T13:07:54;24.60;60.20
21425;DHT22;10873;51.132;16.848;2023-11-21T13:10:22;24.60;60.00
21425;DHT22;10873;51.132;16.848;2023-11-21T13:12:53;24.60;60.00
21425;DHT22;10873;51.132;16.848;2023-11-21T13:15:32;24.60;59.80
21425;DHT22;10873;51.132;16.848;2023-11-21T13:17:59;24.60;59.80
21425;DHT22;10873;51.132;16.848;2023-11-21T13:20:25;24.50;59.60
21425;DHT22;10873;51.132;16.848;2023-11-21T13:22:52;24.60;59.60
21425;DHT22;10873;51.132;16.848;2023-11-21T13:25:27;24.60;59.50
21425;DHT22;10873;51.132;16.848;2023-11-21T13:27:53;24.50;59.40
21425;DHT22;10873;51.132;16.848;2023-11-21T13:30:19;24.50;60.10
21425;DHT22;10873;51.132;16.848;2023-11-21T13:32:54;24.50;59.40
21425;DHT22;10873;51.132;16.848;2023-11-21T13:35:28;24.50;59.30
21425;DHT22;10873;51.132;16.848;2023-11-21T13:38:04;24.50;59.20
21425;DHT22;10873;51.132;16.848;2023-11-21T13:40:33;24.50;59.10
21425;DHT22;10873;51.132;16.848;2023-11-21T13:43:05;24.50;59.00
21425;DHT22;10873;51.132;16.848;2023-11-21T13:45:37;24.50;59.00
21425;DHT22;10873;51.132;16.848;2023-11-21T13:48:07;24.50;58.90
21425;DHT22;10873;51.132;16.848;2023-11-21T13:50:36;24.50;58.90
21425;DHT22;10873;51.132;16.848;2023-11-21T13:53:02;24.50;58.80
21425;DHT22;10873;51.132;16.848;2023-11-21T13:55:42;24.50;58.80
21425;DHT22;10873;51.132;16.848;2023-11-21T13:58:08;24.40;58.60
21425;DHT22;10873;51.132;16.848;2023-11-21T14:00:37;24.40;58.60
21425;DHT22;10873;51.132;16.848;2023-11-21T14:03:15;24.40;58.50
21425;DHT22;10873;51.132;16.848;2023-11-21T14:05:48;24.40;58.50
21425;DHT22;10873;51.132;16.848;2023-11-21T14:08:18;24.40;58.40
21425;DHT22;10873;51.132;16.848;2023-11-21T14:10:46;24.40;58.30
21425;DHT22;10873;51.132;16.848;2023-11-21T14:13:17;24.40;58.10
21425;DHT22;10873;51.132;16.848;2023-11-21T14:15:43;24.40;58.00
21425;DHT22;10873;51.132;16.848;2023-11-21T14:18:12;24.40;58.00
21425;DHT22;10873;51.132;16.848;2023-11-21T14:20:41;24.40;57.90
21425;DHT22;10873;51.132;16.848;2023-11-21T14:23:07;24.50;58.00
21425;DHT22;10873;51.132;16.848;2023-11-21T14:25:34;24.50;57.90
21425;DHT22;10873;51.132;16.848;2023-11-21T14:28:03;24.50;57.80
21425;DHT22;10873;51.132;16.848;2023-11-21T14:30:29;24.50;57.70
21425;DHT22;10873;51.132;16.848;2023-11-21T14:32:57;24.50;57.60
21425;DHT22;10873;51.132;16.848;2023-11-21T14:35:24;24.40;57.60
21425;DHT22;10873;51.132;16.848;2023-11-21T14:37:51;24.50;57.50
21425;DHT22;10873;51.132;16.848;2023-11-21T14:40:18;24.40;57.40
21425;DHT22;10873;51.132;16.848;2023-11-21T14:42:47;24.50;57.40
21425;DHT22;10873;51.132;16.848;2023-11-21T14:45:14;24.40;57.20
21425;DHT22;10873;51.132;16.848;2023-11-21T14:47:45;24.40;57.20
21425;DHT22;10873;51.132;16.848;2023-11-21T14:50:21;24.40;57.00
21425;DHT22;10873;51.132;16.848;2023-11-21T14:53:07;24.40;56.90
21425;DHT22;10873;51.132;16.848;2023-11-21T14:55:34;24.40;56.80
21425;DHT22;10873;51.132;16.848;2023-11-21T14:58:18;24.30;56.60
21425;DHT22;10873;51.132;16.848;2023-11-21T15:00:54;24.40;56.60
21425;DHT22;10873;51.132;16.848;2023-11-21T15:03:24;24.40;56.50
21425;DHT22;10873;51.132;16.848;2023-11-21T15:05:59;24.40;56.50
21425;DHT22;10873;51.132;16.848;2023-11-21T15:08:50;24.30;56.40
21425;DHT22;10873;51.132;16.848;2023-11-21T15:11:25;24.30;56.40
21425;DHT22;10873;51.132;16.848;2023-11-21T15:13:57;24.30;56.40
21425;DHT22;10873;51.132;16.848;2023-11-21T15:16:23;24.30;56.60
21425;DHT22;10873;51.132;16.848;2023-11-21T15:18:51;24.30;56.40
21425;DHT22;10873;51.132;16.848;2023-11-21T15:21:19;24.30;56.40